Accueil
METAR-TAF:

METAR-TAF

Aéroports :

Aéroport de Bologne-Borgo Panigale

Bologne, Italie

latitude: 44-32N, longitude: 011-18E, altitude: 36 m

Observation

Le bulletin a été fait il y a 28 minutes, à 00:20 UTC
Vent 2 kt de est
Température 4°C
Humidité 93%
Pression 1008 hPa
Visibilité 10 km ou plus
pas de nuages en-dessous de 1500 mètres et pas de cumulonimbus.

METAR: LIPE 180020Z 10002KT CAVOK 04/03 Q1008

Heure: 01:48 (00:48 UTC)

Prévision

Le bulletin a été fait il y a 1 heure et 48 minutes, à 23:00 UTC
Prévision valable du 18 à 00 UTC au 18 à 24 UTC
Vent 5 kt de direction variable
Visibilité: 4000 m
Nuages épars à une hauteur de 2000 ft
brume
Temporairement
du 18 à 00 UTC au 18 à 07 UTC
Visibilité: 0800 m
Nuages fragmentés à une hauteur de 500 ft
brouillard
Temporairement
du 18 à 14 UTC au 18 à 24 UTC
pluie

TAF: LIPE 172300Z 1800/1824 VRB05KT 4000 BR SCT020 TEMPO 1800/1807 0800 FG BKN005 TEMPO 1814/1824 RA

Observations et prévisions météorologiques de plus de 4000 aéroports (messages METAR et TAF).

Les stations disponibles sont représentées par des disques jaunes et rouges sur la carte.

Passer la souris dessus pour voir le nom de la station.

Cliquer dessus pour voir les observations et prévisions météorologiques.

Pour changer de carte: cliquez sur les boutons verts avec une croix noire pour zoomer, sur le bouton vert avec un tiret pour effectuer un zoom arrière, ou sur les flèches vertes pour les cartes adjacentes.


METAR-TAF: